Sanko Independence — A8QJ9 — position and weather

sailwx.info

Track history (hours):
 
Tides and Currents Weather Stations Pressure Air Temp Water Temp Dewpoint Dewpoint Depression Visibility Wind Speed Wind Dir Waves Ship Positions

Sanko Independence

Last reported at 2015-Apr-01 08:33 UTC. Time now 2015-Apr-01 14:32 UTC.
Position N 40°26' E 029°03'.

Length 174 m; draft 7.7 m.

Type: Ship (hazmat cat C). MMSI: 636013946.

Date/timePositionNaut miles runAvg speedWind from/ knotsBaromVisibWave heightAir tempDewpointWater temp
2015-Apr-01 08:33N 40°26' E 029°03'1110.4
2015-Apr-01 07:31N 40°27' E 028°49'1414.1
2015-Apr-01 06:32N 40°39' E 028°39'248 7.3
2015-Mar-30 20:23N 37°57' E 024°37'1714.1
2015-Mar-30 19:12N 37°46' E 024°21'1314.1
2015-Mar-30 18:17N 37°37' E 024°09'913.2
2015-Mar-30 17:33N 37°34' E 023°57'1514.7
2015-Mar-30 16:33N 37°42' E 023°41'1211.8
2015-Mar-30 15:33N 37°50' E 023°31'0 0.0
2015-Mar-30 14:31N 37°50' E 023°31'0 0.0
2015-Mar-30 13:31N 37°50' E 023°31'0 0.0
2015-Mar-30 12:31N 37°50' E 023°31'0 0.2
2015-Mar-30 11:31N 37°50' E 023°31'0 0.0
2015-Mar-30 10:32N 37°50' E 023°31'0 0.0
2015-Mar-30 09:27N 37°50' E 023°31'0 0.1
2015-Mar-30 08:33N 37°50' E 023°31'0 0.2
2015-Mar-30 07:32N 37°50' E 023°31'0 0.0
2015-Mar-30 06:31N 37°50' E 023°31'0 0.1
2015-Mar-30 05:31N 37°50' E 023°31'0 0.1
2015-Mar-30 04:31N 37°50' E 023°31'2 2.2
2015-Mar-30 03:33N 37°50' E 023°34'7 6.8
2015-Mar-30 02:33N 37°47' E 023°41'9 9.0
2015-Mar-30 01:33N 37°38' E 023°45'1211.5
2015-Mar-30 00:33N 37°27' E 023°45'44311.7
2015-Mar-28 10:33N 36°22' E 014°37'1414.5
2015-Mar-28 09:33N 36°26' E 014°19'1514.7
2015-Mar-28 08:33N 36°31' E 014°02'1514.8
2015-Mar-28 07:33N 36°36' E 013°45'2114.6
2015-Mar-28 06:07N 36°42' E 013°20'  
Track history (hours):
 
Tides and Currents Weather Stations Pressure Air Temp Water Temp Dewpoint Dewpoint Depression Visibility Wind Speed Wind Dir Waves Ship Positions

Sanko Independence

Last reported at 2015-Apr-01 08:33 UTC. Time now 2015-Apr-01 14:32 UTC.
Position N 40°26' E 029°03'.

Length 174 m; draft 7.7 m.

Type: Ship (hazmat cat C). MMSI: 636013946.

Date/timePositionNaut miles runAvg speedWind from/ knotsBaromVisibWave heightAir tempDewpointWater temp
2015-Apr-01 08:33N 40°26' E 029°03'1110.4
2015-Apr-01 07:31N 40°27' E 028°49'1414.1
2015-Apr-01 06:32N 40°39' E 028°39'248 7.3
2015-Mar-30 20:23N 37°57' E 024°37'1714.1
2015-Mar-30 19:12N 37°46' E 024°21'1314.1
2015-Mar-30 18:17N 37°37' E 024°09'913.2
2015-Mar-30 17:33N 37°34' E 023°57'1514.7
2015-Mar-30 16:33N 37°42' E 023°41'1211.8
2015-Mar-30 15:33N 37°50' E 023°31'0 0.0
2015-Mar-30 14:31N 37°50' E 023°31'0 0.0
2015-Mar-30 13:31N 37°50' E 023°31'0 0.0
2015-Mar-30 12:31N 37°50' E 023°31'0 0.2
2015-Mar-30 11:31N 37°50' E 023°31'0 0.0
2015-Mar-30 10:32N 37°50' E 023°31'0 0.0
2015-Mar-30 09:27N 37°50' E 023°31'0 0.1
2015-Mar-30 08:33N 37°50' E 023°31'0 0.2
2015-Mar-30 07:32N 37°50' E 023°31'0 0.0
2015-Mar-30 06:31N 37°50' E 023°31'0 0.1
2015-Mar-30 05:31N 37°50' E 023°31'0 0.1
2015-Mar-30 04:31N 37°50' E 023°31'2 2.2
2015-Mar-30 03:33N 37°50' E 023°34'7 6.8
2015-Mar-30 02:33N 37°47' E 023°41'9 9.0
2015-Mar-30 01:33N 37°38' E 023°45'1211.5
2015-Mar-30 00:33N 37°27' E 023°45'44311.7
2015-Mar-28 10:33N 36°22' E 014°37'1414.5
2015-Mar-28 09:33N 36°26' E 014°19'1514.7
2015-Mar-28 08:33N 36°31' E 014°02'1514.8
2015-Mar-28 07:33N 36°36' E 013°45'2114.6
2015-Mar-28 06:07N 36°42' E 013°20'  

Dump ship's entire track history